createdAt,value
2018-07-09T00:01:42.739Z,21.40
2018-07-09T00:04:09.668Z,21.40
2018-07-09T00:06:36.526Z,21.40
2018-07-09T00:09:03.555Z,21.40
2018-07-09T00:11:30.415Z,21.30
2018-07-09T00:13:57.371Z,21.30
2018-07-09T00:16:24.307Z,21.30
2018-07-09T00:18:51.270Z,21.30
2018-07-09T00:21:18.197Z,21.30
2018-07-09T00:23:45.186Z,21.20
2018-07-09T00:26:12.059Z,21.20
2018-07-09T00:28:38.985Z,21.10
2018-07-09T00:31:05.871Z,21.10
2018-07-09T00:33:33.588Z,21.00
2018-07-09T00:36:00.445Z,21.00
2018-07-09T00:38:27.368Z,21.00
2018-07-09T00:40:54.220Z,21.00
2018-07-09T00:43:21.218Z,20.90
2018-07-09T00:45:48.900Z,20.90
2018-07-09T00:48:15.909Z,20.90
2018-07-09T00:50:42.788Z,20.80
2018-07-09T00:53:09.780Z,20.80
2018-07-09T00:55:36.662Z,20.80
2018-07-09T00:58:04.401Z,20.70
2018-07-09T01:00:31.325Z,20.70
2018-07-09T01:02:58.239Z,20.70
2018-07-09T01:05:25.135Z,20.50
2018-07-09T01:07:52.041Z,20.60
2018-07-09T01:10:18.924Z,20.50
2018-07-09T01:12:45.836Z,20.50
2018-07-09T01:15:12.708Z,20.50
2018-07-09T01:17:39.632Z,20.50
2018-07-09T01:20:06.584Z,20.40
2018-07-09T01:22:33.434Z,20.50
2018-07-09T01:25:00.360Z,20.40
2018-07-09T01:27:27.305Z,20.40
2018-07-09T01:29:54.315Z,20.40
2018-07-09T01:32:21.909Z,20.30
2018-07-09T01:34:48.824Z,20.30
2018-07-09T01:37:16.413Z,20.20
2018-07-09T01:39:43.311Z,20.20
2018-07-09T01:42:10.170Z,20.20
2018-07-09T01:44:37.844Z,20.10
2018-07-09T01:47:05.430Z,20.10
2018-07-09T01:49:32.362Z,20.10
2018-07-09T01:51:59.233Z,20.10
2018-07-09T01:54:26.142Z,20.10
2018-07-09T01:56:53.001Z,20.10
2018-07-09T01:59:19.959Z,20.20
2018-07-09T02:01:46.796Z,20.10
2018-07-09T02:04:13.688Z,20.00
2018-07-09T02:06:40.553Z,20.00
2018-07-09T02:09:08.224Z,19.90
2018-07-09T02:11:35.812Z,19.90
2018-07-09T02:14:02.740Z,19.90
2018-07-09T02:16:29.626Z,19.80
2018-07-09T02:18:56.522Z,19.80
2018-07-09T02:21:24.123Z,19.70
2018-07-09T02:23:51.046Z,19.70
2018-07-09T02:26:17.938Z,19.70
2018-07-09T02:28:44.852Z,19.60
2018-07-09T02:31:11.724Z,19.50
2018-07-09T02:33:38.627Z,19.50
2018-07-09T02:36:05.514Z,19.50
2018-07-09T02:38:32.448Z,19.40
2018-07-09T02:40:59.307Z,19.40
2018-07-09T02:43:26.192Z,19.40
2018-07-09T02:45:53.101Z,19.30
2018-07-09T02:48:19.952Z,19.40
2018-07-09T02:50:46.853Z,19.30
2018-07-09T02:53:13.711Z,19.40
2018-07-09T02:55:40.685Z,19.30
2018-07-09T02:58:07.535Z,19.30
2018-07-09T03:00:34.489Z,19.30
2018-07-09T03:03:02.182Z,19.10
2018-07-09T03:05:29.080Z,19.10
2018-07-09T03:07:55.917Z,19.10
2018-07-09T03:10:22.814Z,19.10
2018-07-09T03:12:49.663Z,19.00
2018-07-09T03:15:16.583Z,19.10
2018-07-09T03:17:44.184Z,19.10
2018-07-09T03:20:11.096Z,19.10
2018-07-09T03:22:38.693Z,19.10
2018-07-09T03:25:05.604Z,19.10
2018-07-09T03:27:32.468Z,19.00
2018-07-09T03:29:59.372Z,19.00
2018-07-09T03:32:26.213Z,19.00
2018-07-09T03:34:53.119Z,19.00
2018-07-09T03:37:19.964Z,19.00
2018-07-09T03:39:46.885Z,19.00
2018-07-09T03:42:13.735Z,19.10
2018-07-09T03:44:40.644Z,19.00
2018-07-09T03:47:07.504Z,19.00
2018-07-09T03:49:35.144Z,19.00
2018-07-09T03:52:01.997Z,19.00
2018-07-09T03:54:28.912Z,19.00
2018-07-09T03:56:55.812Z,19.10
2018-07-09T03:59:22.766Z,19.00
2018-07-09T04:01:49.665Z,19.00
2018-07-09T04:04:16.585Z,19.00
2018-07-09T04:06:43.505Z,18.90
2018-07-09T04:09:10.365Z,19.00
2018-07-09T04:11:37.282Z,19.00
2018-07-09T04:14:04.124Z,18.90
2018-07-09T04:16:31.026Z,19.00
2018-07-09T04:18:57.872Z,18.90
2018-07-09T04:21:24.777Z,19.00
2018-07-09T04:23:51.685Z,19.00
2018-07-09T04:26:20.778Z,19.00
2018-07-09T04:29:03.064Z,19.00
2018-07-09T04:31:30.595Z,19.10
2018-07-09T04:33:57.442Z,19.10
2018-07-09T04:36:24.362Z,19.40
2018-07-09T04:38:51.220Z,19.80
2018-07-09T04:41:18.124Z,21.80
2018-07-09T04:43:44.965Z,21.70
2018-07-09T04:46:11.872Z,21.60
2018-07-09T04:48:38.728Z,22.50
2018-07-09T04:51:05.719Z,23.70
2018-07-09T04:53:33.394Z,26.00
2018-07-09T04:56:00.318Z,25.90
2018-07-09T04:58:27.917Z,27.70
2018-07-09T05:00:54.904Z,27.70
2018-07-09T05:03:21.745Z,29.20
2018-07-09T05:05:49.100Z,30.70
2018-07-09T05:08:15.977Z,32.40
2018-07-09T05:10:42.888Z,33.40
2018-07-09T05:13:10.657Z,32.60
2018-07-09T05:15:37.725Z,31.90
2018-07-09T05:18:04.646Z,34.30
2018-07-09T05:20:31.543Z,34.20
2018-07-09T05:22:58.437Z,35.40
2018-07-09T05:25:25.283Z,35.00
2018-07-09T05:27:52.241Z,36.20
2018-07-09T05:30:19.094Z,36.30
2018-07-09T05:32:46.032Z,35.70
2018-07-09T05:35:12.902Z,34.50
2018-07-09T05:37:40.568Z,29.30
2018-07-09T05:40:07.593Z,29.20
2018-07-09T05:42:34.590Z,29.10
2018-07-09T05:45:01.451Z,27.80
2018-07-09T05:47:28.499Z,26.90
2018-07-09T05:49:55.444Z,25.60
2018-07-09T05:52:22.401Z,24.10
2018-07-09T05:54:49.244Z,23.70
2018-07-09T05:57:16.168Z,23.50
2018-07-09T05:59:43.092Z,24.00
2018-07-09T06:02:10.096Z,25.70
2018-07-09T06:04:37.014Z,25.70
2018-07-09T06:07:03.980Z,25.50
2018-07-09T06:09:30.853Z,25.90
2018-07-09T06:11:58.006Z,24.30
2018-07-09T06:14:38.288Z,23.80
2018-07-09T06:17:06.038Z,23.50
2018-07-09T06:19:35.261Z,22.80
2018-07-09T06:22:02.174Z,22.80
2018-07-09T06:24:29.597Z,22.70
2018-07-09T06:26:56.556Z,22.40
2018-07-09T06:29:23.441Z,21.80
2018-07-09T06:31:50.417Z,22.30
2018-07-09T06:34:17.288Z,22.50
2018-07-09T06:36:44.779Z,22.70
2018-07-09T06:39:12.264Z,22.80
2018-07-09T06:41:39.225Z,22.70
2018-07-09T06:44:06.134Z,22.60
2018-07-09T06:46:33.780Z,22.90
2018-07-09T06:49:00.774Z,22.90
2018-07-09T06:51:27.713Z,22.90
2018-07-09T06:53:54.685Z,23.00
2018-07-09T06:56:21.544Z,23.10
2018-07-09T06:58:49.366Z,23.40
2018-07-09T07:01:16.303Z,23.30
2018-07-09T07:03:43.242Z,23.30
2018-07-09T07:06:10.858Z,23.40
2018-07-09T07:08:37.846Z,23.40
2018-07-09T07:11:05.537Z,23.30
2018-07-09T07:13:32.465Z,23.30
2018-07-09T07:15:59.365Z,23.30
2018-07-09T07:18:26.293Z,23.30
2018-07-09T07:20:53.197Z,23.50
2018-07-09T07:23:20.157Z,23.30
2018-07-09T07:25:47.085Z,23.30
2018-07-09T07:28:14.108Z,23.50
2018-07-09T07:30:41.001Z,23.50
2018-07-09T07:33:08.030Z,23.40
2018-07-09T07:35:35.676Z,23.40
2018-07-09T07:38:02.675Z,23.40
2018-07-09T07:40:29.553Z,23.50
2018-07-09T07:42:56.525Z,23.50
2018-07-09T07:45:24.217Z,23.70
2018-07-09T07:47:51.188Z,23.70
2018-07-09T07:50:18.121Z,23.70
2018-07-09T07:52:45.081Z,23.80
2018-07-09T07:55:12.001Z,24.90
2018-07-09T07:57:38.932Z,28.00
2018-07-09T08:00:05.903Z,27.30
2018-07-09T08:02:32.878Z,27.10
2018-07-09T08:04:59.793Z,26.80
2018-07-09T08:07:26.760Z,26.70
2018-07-09T08:09:53.665Z,27.80
2018-07-09T08:14:47.750Z,26.50
2018-07-09T08:17:15.410Z,26.70
2018-07-09T08:19:43.151Z,26.70
2018-07-09T08:22:10.096Z,26.80
2018-07-09T08:24:37.022Z,26.80
2018-07-09T08:27:03.958Z,27.90
2018-07-09T08:29:30.901Z,30.00
2018-07-09T08:31:57.790Z,30.80
2018-07-09T08:34:24.721Z,32.10
2018-07-09T08:36:51.617Z,30.50
2018-07-09T08:39:18.618Z,30.10
2018-07-09T08:41:45.563Z,30.60
2018-07-09T08:44:12.493Z,31.00
2018-07-09T08:46:39.369Z,31.90
2018-07-09T08:49:06.391Z,31.00
2018-07-09T08:51:33.305Z,31.80
2018-07-09T08:54:00.235Z,32.00
2018-07-09T08:56:27.112Z,32.40
2018-07-09T08:58:54.040Z,33.00
2018-07-09T09:01:21.040Z,34.10
2018-07-09T09:03:47.954Z,34.50
2018-07-09T09:06:14.862Z,33.80
2018-07-09T09:08:41.803Z,33.20
2018-07-09T09:11:09.466Z,31.80
2018-07-09T09:13:37.138Z,31.50
2018-07-09T09:16:04.063Z,31.50
2018-07-09T09:18:31.006Z,30.70
2018-07-09T09:20:57.956Z,31.20
2018-07-09T09:23:25.660Z,31.10
2018-07-09T09:25:52.519Z,31.10
2018-07-09T09:28:19.494Z,31.40
2018-07-09T09:30:46.396Z,32.00
2018-07-09T09:33:13.380Z,31.80
2018-07-09T09:35:40.281Z,32.20
2018-07-09T09:38:07.197Z,32.00
2018-07-09T09:40:34.169Z,31.80
2018-07-09T09:43:01.053Z,31.70
2018-07-09T09:45:27.976Z,32.20
2018-07-09T09:47:54.895Z,30.90
2018-07-09T09:50:21.838Z,31.50
2018-07-09T09:52:48.680Z,31.00
2018-07-09T09:55:15.633Z,31.50
2018-07-09T09:57:42.633Z,31.10
2018-07-09T10:00:09.677Z,31.10
2018-07-09T10:02:36.568Z,31.00
2018-07-09T10:05:03.582Z,31.70
2018-07-09T10:07:30.452Z,31.60
2018-07-09T10:09:57.403Z,31.20
2018-07-09T10:12:24.269Z,31.50
2018-07-09T10:14:51.196Z,31.50
2018-07-09T10:17:18.074Z,31.70
2018-07-09T10:19:44.990Z,31.90
2018-07-09T10:22:11.849Z,30.90
2018-07-09T10:24:38.817Z,30.80
2018-07-09T10:27:05.677Z,30.90
2018-07-09T10:29:32.597Z,31.10
2018-07-09T10:31:59.461Z,30.60
2018-07-09T10:34:26.389Z,31.30
2018-07-09T10:36:53.294Z,31.20
2018-07-09T10:39:20.236Z,31.80
2018-07-09T10:41:47.875Z,31.80
2018-07-09T10:44:14.788Z,31.80
2018-07-09T10:46:41.670Z,32.00
2018-07-09T10:49:08.599Z,32.30
2018-07-09T10:51:35.486Z,32.10
2018-07-09T10:54:02.396Z,32.40
2018-07-09T10:56:29.336Z,31.60
2018-07-09T10:58:56.184Z,31.90
2018-07-09T11:01:23.253Z,31.60
2018-07-09T11:03:50.200Z,31.10
2018-07-09T11:06:17.885Z,31.00
2018-07-09T11:08:44.781Z,31.00
2018-07-09T11:11:11.700Z,30.00
2018-07-09T11:13:38.579Z,30.30
2018-07-09T11:16:05.549Z,30.40
2018-07-09T11:18:32.399Z,30.20
2018-07-09T11:21:00.091Z,29.80
2018-07-09T11:23:26.968Z,29.70
2018-07-09T11:25:53.889Z,30.60
2018-07-09T11:28:20.780Z,30.60
2018-07-09T11:30:47.708Z,30.70
2018-07-09T11:33:14.588Z,30.60
2018-07-09T11:35:42.251Z,29.90
2018-07-09T11:38:09.126Z,29.90
2018-07-09T11:40:36.098Z,30.00
2018-07-09T11:43:03.006Z,29.20
2018-07-09T11:45:29.933Z,29.50
2018-07-09T11:47:57.593Z,30.30
2018-07-09T11:50:25.267Z,30.30
2018-07-09T11:52:52.125Z,30.30
2018-07-09T11:55:19.037Z,30.80
2018-07-09T11:57:45.907Z,31.20
2018-07-09T12:00:12.909Z,31.10
2018-07-09T12:02:39.827Z,30.60
2018-07-09T12:05:06.834Z,30.00
2018-07-09T12:07:34.428Z,30.30
2018-07-09T12:10:01.378Z,30.30
2018-07-09T12:12:28.244Z,30.30
2018-07-09T12:14:55.184Z,30.00
2018-07-09T12:17:22.116Z,30.10
2018-07-09T12:19:49.081Z,30.50
2018-07-09T12:22:15.990Z,30.00
2018-07-09T12:24:43.425Z,30.20
2018-07-09T12:27:11.098Z,30.10
2018-07-09T12:29:38.061Z,30.00
2018-07-09T12:32:05.390Z,29.40
2018-07-09T12:34:32.977Z,30.20
2018-07-09T12:37:00.774Z,30.20
2018-07-09T12:39:27.656Z,30.20
2018-07-09T12:41:54.580Z,30.20
2018-07-09T12:44:21.492Z,30.10
2018-07-09T12:46:48.492Z,30.50
2018-07-09T12:49:16.580Z,30.30
2018-07-09T12:51:44.227Z,30.30
2018-07-09T12:54:11.124Z,30.20
2018-07-09T12:56:38.025Z,30.10
2018-07-09T12:59:05.684Z,30.50
2018-07-09T13:01:32.730Z,30.40
2018-07-09T13:04:00.361Z,30.50
2018-07-09T13:06:27.333Z,30.60
2018-07-09T13:08:54.200Z,31.20
2018-07-09T13:11:21.117Z,31.20
2018-07-09T13:13:48.036Z,31.00
2018-07-09T13:16:14.961Z,30.70
2018-07-09T13:18:41.812Z,31.00
2018-07-09T13:21:08.897Z,30.90
2018-07-09T13:23:35.818Z,30.90
2018-07-09T13:26:02.756Z,30.50
2018-07-09T13:28:29.695Z,30.30
2018-07-09T13:31:05.790Z,30.60
2018-07-09T13:33:32.784Z,30.50
2018-07-09T13:36:01.441Z,30.00
2018-07-09T13:38:28.383Z,30.10
2018-07-09T13:41:00.888Z,30.30
2018-07-09T13:43:28.644Z,30.30
2018-07-09T13:45:56.351Z,30.40
2018-07-09T13:48:23.369Z,30.40
2018-07-09T13:51:01.460Z,29.90
2018-07-09T13:53:29.917Z,29.90
2018-07-09T13:55:56.973Z,29.90
2018-07-09T13:58:23.893Z,29.70
2018-07-09T14:00:50.821Z,29.80
2018-07-09T14:03:17.754Z,29.50
2018-07-09T14:05:44.689Z,29.50
2018-07-09T14:08:12.349Z,29.80
2018-07-09T14:10:39.225Z,29.70
2018-07-09T14:13:06.276Z,29.70
2018-07-09T14:15:33.145Z,29.40
2018-07-09T14:18:06.839Z,29.80
2018-07-09T14:20:33.758Z,29.90
2018-07-09T14:23:00.725Z,29.90
2018-07-09T14:25:28.620Z,29.40
2018-07-09T14:27:55.565Z,29.50
2018-07-09T14:30:22.434Z,29.50
2018-07-09T14:32:49.436Z,30.10
2018-07-09T14:35:16.367Z,30.40
2018-07-09T14:37:43.372Z,30.50
2018-07-09T14:40:11.428Z,30.80
2018-07-09T14:42:48.605Z,30.80
2018-07-09T14:48:12.471Z,29.70
2018-07-09T14:50:53.448Z,29.70
2018-07-09T14:53:34.668Z,29.50
2018-07-09T14:56:02.469Z,29.50
2018-07-09T14:58:30.729Z,29.80
2018-07-09T15:00:57.709Z,29.80
2018-07-09T15:03:24.619Z,29.70
2018-07-09T15:05:52.216Z,29.80
2018-07-09T15:08:32.804Z,29.80
2018-07-09T15:11:06.718Z,29.70
2018-07-09T15:13:35.335Z,29.30
2018-07-09T15:16:09.494Z,29.20
2018-07-09T15:18:36.452Z,29.40
2018-07-09T15:21:17.583Z,29.20
2018-07-09T15:23:45.406Z,29.10
2018-07-09T15:26:12.259Z,29.30
2018-07-09T15:28:39.177Z,29.00
2018-07-09T15:31:06.056Z,29.10
2018-07-09T15:33:32.969Z,28.90
2018-07-09T15:35:59.852Z,29.20
2018-07-09T15:38:26.818Z,28.80
2018-07-09T15:40:53.796Z,28.50
2018-07-09T15:43:38.982Z,27.80
2018-07-09T15:46:20.997Z,28.00
2018-07-09T15:49:02.848Z,28.00
2018-07-09T15:51:44.027Z,28.10
2018-07-09T15:54:25.962Z,28.10
2018-07-09T15:56:53.787Z,28.10
2018-07-09T15:59:20.692Z,28.20
2018-07-09T16:01:47.605Z,28.30
2018-07-09T16:04:14.515Z,28.40
2018-07-09T16:06:47.267Z,28.50
2018-07-09T16:09:30.000Z,28.50
2018-07-09T16:12:10.784Z,28.50
2018-07-09T16:14:52.683Z,28.20
2018-07-09T16:17:33.376Z,28.40
2018-07-09T16:20:16.764Z,28.60
2018-07-09T16:22:44.384Z,28.60
2018-07-09T16:25:11.304Z,28.80
2018-07-09T16:27:38.175Z,28.50
2018-07-09T16:30:20.235Z,28.70
2018-07-09T16:32:48.041Z,28.20
2018-07-09T16:35:14.951Z,28.40
2018-07-09T16:37:41.819Z,28.30
2018-07-09T16:40:12.742Z,28.30
2018-07-09T16:42:39.644Z,28.30
2018-07-09T16:45:06.579Z,28.30
2018-07-09T16:47:44.176Z,28.20
2018-07-09T16:50:26.115Z,28.20
2018-07-09T16:55:57.763Z,28.20
2018-07-09T16:58:37.549Z,27.90
2018-07-09T17:01:05.510Z,27.90
2018-07-09T17:03:33.225Z,27.50
2018-07-09T17:06:00.173Z,27.50
2018-07-09T17:08:27.064Z,27.40
2018-07-09T17:10:54.756Z,27.40
2018-07-09T17:13:21.605Z,27.30
2018-07-09T17:15:48.528Z,27.30
2018-07-09T17:18:16.120Z,27.40
2018-07-09T17:20:43.073Z,27.40
2018-07-09T17:23:09.940Z,27.30
2018-07-09T17:25:36.859Z,27.00
2018-07-09T17:28:03.789Z,27.00
2018-07-09T17:30:30.708Z,27.00
2018-07-09T17:32:58.296Z,26.60
2018-07-09T17:35:25.197Z,26.60
2018-07-09T17:37:52.104Z,26.60
2018-07-09T17:40:19.069Z,26.50
2018-07-09T17:42:59.190Z,26.50
2018-07-09T17:45:36.069Z,26.40
2018-07-09T17:48:03.452Z,26.10
2018-07-09T17:50:30.412Z,26.10
2018-07-09T17:52:57.344Z,26.20
2018-07-09T17:55:24.254Z,26.10
2018-07-09T17:57:51.104Z,26.00
2018-07-09T18:00:18.094Z,26.10
2018-07-09T18:02:44.972Z,26.10
2018-07-09T18:05:11.953Z,26.00
2018-07-09T18:07:38.840Z,25.90
2018-07-09T18:10:05.776Z,25.50
2018-07-09T18:12:32.700Z,25.30
2018-07-09T18:14:59.566Z,25.40
2018-07-09T18:17:26.508Z,25.30
2018-07-09T18:19:53.358Z,25.20
2018-07-09T18:22:20.273Z,25.20
2018-07-09T18:24:47.202Z,25.40
2018-07-09T18:27:14.145Z,25.30
2018-07-09T18:29:40.991Z,25.00
2018-07-09T18:32:07.963Z,25.20
2018-07-09T18:34:34.838Z,25.20
2018-07-09T18:37:01.831Z,25.30
2018-07-09T18:39:28.823Z,25.20
2018-07-09T18:41:55.824Z,25.20
2018-07-09T18:44:22.681Z,25.20
2018-07-09T18:46:49.614Z,25.20
2018-07-09T18:49:16.912Z,25.20
2018-07-09T18:51:43.860Z,25.20
2018-07-09T18:54:10.736Z,25.30
2018-07-09T18:56:37.647Z,25.30
2018-07-09T18:59:04.500Z,25.10
2018-07-09T19:01:31.470Z,25.10
2018-07-09T19:03:59.099Z,25.00
2018-07-09T19:06:26.108Z,25.10
2018-07-09T19:08:53.018Z,25.10
2018-07-09T19:11:20.007Z,25.00
2018-07-09T19:13:46.965Z,25.00
2018-07-09T19:16:14.000Z,25.00
2018-07-09T19:19:03.708Z,25.00
2018-07-09T19:22:04.370Z,24.90
2018-07-09T19:24:30.873Z,24.80
2018-07-09T19:26:57.445Z,24.70
2018-07-09T19:29:23.938Z,24.70
2018-07-09T19:31:50.496Z,24.60
2018-07-09T19:34:17.075Z,24.60
2018-07-09T19:36:44.435Z,24.40
2018-07-09T19:39:10.904Z,24.40
2018-07-09T19:41:37.453Z,24.30
2018-07-09T19:44:03.960Z,24.30
2018-07-09T19:46:30.524Z,24.20
2018-07-09T19:48:57.017Z,24.30
2018-07-09T19:51:23.512Z,24.30
2018-07-09T19:53:50.046Z,24.20
2018-07-09T19:56:16.529Z,24.10
2018-07-09T19:58:43.081Z,24.20
2018-07-09T20:01:09.625Z,24.10
2018-07-09T20:03:36.198Z,24.10
2018-07-09T20:06:02.688Z,24.00
2018-07-09T20:08:29.312Z,24.00
2018-07-09T20:11:14.509Z,24.10
2018-07-09T20:13:41.129Z,24.00
2018-07-09T20:16:22.468Z,24.00
2018-07-09T20:18:49.009Z,23.90
2018-07-09T20:21:15.501Z,23.80
2018-07-09T20:23:42.053Z,23.80
2018-07-09T20:26:08.559Z,23.80
2018-07-09T20:28:35.130Z,23.80
2018-07-09T20:31:01.640Z,23.70
2018-07-09T20:33:28.201Z,23.70
2018-07-09T20:35:54.933Z,23.70
2018-07-09T20:38:21.501Z,23.60
2018-07-09T20:40:47.999Z,23.60
2018-07-09T20:43:14.568Z,23.60
2018-07-09T20:45:41.071Z,23.60
2018-07-09T20:48:07.687Z,23.50
2018-07-09T20:50:34.948Z,23.50
2018-07-09T20:53:01.512Z,23.40
2018-07-09T20:55:28.017Z,23.50
2018-07-09T20:57:54.572Z,23.40
2018-07-09T21:00:21.181Z,23.40
2018-07-09T21:02:47.745Z,23.40
2018-07-09T21:05:14.316Z,23.50
2018-07-09T21:07:40.812Z,23.40
2018-07-09T21:10:07.391Z,23.40
2018-07-09T21:12:33.945Z,23.40
2018-07-09T21:15:00.553Z,23.40
2018-07-09T21:17:27.048Z,23.30
2018-07-09T21:19:53.612Z,23.40
2018-07-09T21:22:20.138Z,23.40
2018-07-09T21:24:46.714Z,23.20
2018-07-09T21:27:13.216Z,23.30
2018-07-09T21:29:39.817Z,23.20
2018-07-09T21:32:07.071Z,23.20
2018-07-09T21:34:33.662Z,23.20
2018-07-09T21:37:00.189Z,23.20
2018-07-09T21:39:26.867Z,23.20
2018-07-09T21:42:00.610Z,23.20
2018-07-09T21:44:27.597Z,23.20
2018-07-09T21:46:54.502Z,23.10
2018-07-09T21:49:21.097Z,23.10
2018-07-09T21:51:47.595Z,23.10
2018-07-09T21:54:14.174Z,23.10
2018-07-09T21:56:40.664Z,23.10
2018-07-09T21:59:07.783Z,23.10
2018-07-09T22:01:35.651Z,23.00
2018-07-09T22:04:02.373Z,23.00
2018-07-09T22:06:28.866Z,23.00
2018-07-09T22:08:55.363Z,23.00
2018-07-09T22:11:21.938Z,23.00
2018-07-09T22:13:48.453Z,23.00
2018-07-09T22:16:15.019Z,22.90
2018-07-09T22:18:41.525Z,22.90
2018-07-09T22:21:08.097Z,22.90
2018-07-09T22:23:34.608Z,22.80
2018-07-09T22:26:01.165Z,22.80
2018-07-09T22:28:27.673Z,22.80
2018-07-09T22:30:54.693Z,22.70
2018-07-09T22:33:22.301Z,22.70
2018-07-09T22:35:49.265Z,22.70
2018-07-09T22:38:16.114Z,22.60
2018-07-09T22:40:43.032Z,22.50
2018-07-09T22:43:10.143Z,22.40
2018-07-09T22:45:37.810Z,22.30
2018-07-09T22:48:05.445Z,22.30
2018-07-09T22:50:32.374Z,22.30
2018-07-09T22:52:59.246Z,22.30
2018-07-09T23:08:58.240Z,22.20
2018-07-09T23:11:25.257Z,22.40
2018-07-09T23:13:52.213Z,22.40
2018-07-09T23:16:23.208Z,22.50
2018-07-09T23:19:12.965Z,22.50
2018-07-09T23:21:39.989Z,22.60
2018-07-09T23:24:06.500Z,22.60
2018-07-09T23:26:33.061Z,22.60
2018-07-09T23:28:59.565Z,22.60
2018-07-09T23:31:26.113Z,22.60
2018-07-09T23:33:52.611Z,22.70
2018-07-09T23:36:19.841Z,22.60
2018-07-09T23:38:46.405Z,22.60
2018-07-09T23:41:13.656Z,22.60
2018-07-09T23:43:41.034Z,22.60
2018-07-09T23:46:07.524Z,22.60
2018-07-09T23:48:34.087Z,22.60
2018-07-09T23:51:01.404Z,22.60
2018-07-09T23:53:27.931Z,22.60
2018-07-09T23:55:54.877Z,22.70
2018-07-09T23:58:21.954Z,22.60
